Time;durP1;ratioP1;P1;durP2;ratioP2;P2;SDS_P1;SDS_P2;PMS_P1;PMS_P2;Temp;Humidity;BMP_temperature;BMP_pressure;BME280_temperature;BME280_humidity;BME280_pressure;Samples;Min_cycle;Max_cycle;Signal;HPM_P1;HPM_P2
2022/12/26 00:01:17;;;;;;;1.77;1.67;;;15.00;91.70;;;;;;4993706;28;20497;-75
2022/12/26 00:03:49;;;;;;;2.70;1.90;;;14.90;91.70;;;;;;4993022;28;20817;-74
2022/12/26 00:06:17;;;;;;;2.65;1.90;;;14.80;92.00;;;;;;4993038;28;20895;-73
2022/12/26 00:08:43;;;;;;;3.03;1.90;;;14.90;91.90;;;;;;4993720;28;20896;-74
2022/12/26 00:11:09;;;;;;;1.90;1.80;;;15.00;91.40;;;;;;4993687;28;20939;-74
2022/12/26 00:13:35;;;;;;;2.05;1.90;;;15.10;90.70;;;;;;4993112;28;20386;-74
2022/12/26 00:16:15;;;;;;;2.88;1.95;;;15.00;91.20;;;;;;4993979;28;20958;-74
2022/12/26 00:18:41;;;;;;;1.90;1.70;;;14.90;91.30;;;;;;4974217;28;20515;-74
2022/12/26 00:21:10;;;;;;;3.33;2.00;;;14.80;91.90;;;;;;4981882;28;20509;-74
2022/12/26 00:23:36;;;;;;;2.20;1.75;;;14.90;91.20;;;;;;4992792;28;20399;-74
2022/12/26 00:26:09;;;;;;;1.90;1.80;;;15.00;91.10;;;;;;4993286;28;20410;-74
2022/12/26 00:28:35;;;;;;;1.83;1.73;;;15.00;90.80;;;;;;4993505;28;20864;-74
2022/12/26 00:31:10;;;;;;;2.13;1.60;;;15.10;90.90;;;;;;4992918;28;20413;-75
2022/12/26 00:33:36;;;;;;;2.50;1.70;;;15.10;91.00;;;;;;4992506;28;20386;-75
2022/12/26 00:36:04;;;;;;;1.70;1.60;;;14.90;91.20;;;;;;4975085;28;20394;-75
2022/12/26 00:38:30;;;;;;;2.30;1.80;;;14.90;91.40;;;;;;4993061;28;20891;-74
2022/12/26 00:40:56;;;;;;;1.93;1.73;;;15.20;91.50;;;;;;4992768;28;20410;-74
2022/12/26 00:43:21;;;;;;;1.90;1.70;;;15.10;90.90;;;;;;4992535;28;20861;-74
2022/12/26 00:45:47;;;;;;;3.00;1.70;;;15.00;91.00;;;;;;4992607;28;20477;-74
2022/12/26 00:48:13;;;;;;;3.40;1.83;;;15.00;90.70;;;;;;4993077;28;20884;-75
2022/12/26 00:50:38;;;;;;;2.15;1.67;;;15.10;90.90;;;;;;4992868;28;20414;-74
2022/12/26 00:53:04;;;;;;;2.55;1.98;;;14.90;90.90;;;;;;4992020;28;20488;-76
2022/12/26 00:55:29;;;;;;;2.60;1.63;;;15.00;90.40;;;;;;4992885;28;20398;-76
2022/12/26 00:57:55;;;;;;;1.90;1.77;;;14.90;90.70;;;;;;4992978;28;20427;-75
2022/12/26 01:00:20;;;;;;;2.63;1.75;;;15.00;90.50;;;;;;4992558;28;20438;-75
2022/12/26 01:02:46;;;;;;;2.00;1.80;;;14.90;90.70;;;;;;4991905;28;20923;-75
2022/12/26 01:05:11;;;;;;;2.20;1.90;;;15.10;89.90;;;;;;4992736;28;20437;-75
2022/12/26 01:07:38;;;;;;;3.80;1.90;;;15.00;90.00;;;;;;4992577;28;20421;-75
2022/12/26 01:10:06;;;;;;;1.70;1.50;;;14.90;90.20;;;;;;4992431;28;20483;-76
2022/12/26 01:12:32;;;;;;;2.20;1.83;;;14.90;90.00;;;;;;4992244;28;20389;-75
2022/12/26 01:14:58;;;;;;;2.50;2.00;;;15.00;90.00;;;;;;4992325;28;20387;-75
2022/12/26 01:17:26;;;;;;;2.78;1.90;;;15.00;90.00;;;;;;4992265;28;20405;-75
2022/12/26 01:19:52;;;;;;;2.08;1.90;;;14.90;89.80;;;;;;4992254;28;20406;-74
2022/12/26 01:22:18;;;;;;;2.40;1.60;;;15.00;89.40;;;;;;4992409;28;20402;-75
2022/12/26 01:24:44;;;;;;;2.40;1.88;;;15.00;89.00;;;;;;4974108;28;20395;-75
2022/12/26 01:27:09;;;;;;;2.90;1.60;;;15.00;89.10;;;;;;4992226;28;20395;-75
2022/12/26 01:29:35;;;;;;;2.10;1.63;;;15.00;88.30;;;;;;4991877;28;20394;-75
2022/12/26 01:32:01;;;;;;;2.30;2.10;;;15.00;88.30;;;;;;4992249;28;20606;-74
2022/12/26 01:34:26;;;;;;;2.77;1.80;;;15.00;88.10;;;;;;4991532;28;20445;-75
2022/12/26 01:36:52;;;;;;;2.10;1.90;;;14.90;89.30;;;;;;4992209;28;20390;-75
2022/12/26 01:39:18;;;;;;;2.20;2.00;;;14.80;89.70;;;;;;4992019;28;20397;-75
2022/12/26 01:41:44;;;;;;;1.90;1.80;;;14.80;89.50;;;;;;4991955;28;20394;-74
2022/12/26 01:44:50;;;;;;;1.57;1.47;;;14.80;89.70;;;;;;4990810;28;20774;-75
2022/12/26 01:47:18;;;;;;;2.30;1.63;;;14.70;89.90;;;;;;4964350;28;20395;-75
2022/12/26 01:49:48;;;;;;;3.10;1.90;;;14.80;90.00;;;;;;4973966;28;20397;-74
2022/12/26 01:52:24;;;;;;;2.42;1.70;;;14.90;89.50;;;;;;4991700;28;20475;-74
2022/12/26 01:54:51;;;;;;;2.17;1.80;;;14.90;88.60;;;;;;4991096;28;20451;-74
2022/12/26 01:57:26;;;;;;;2.10;1.80;;;14.90;88.80;;;;;;4991543;28;20473;-74
2022/12/26 01:59:54;;;;;;;1.95;1.75;;;14.90;88.40;;;;;;4974609;28;20788;-74
2022/12/26 02:02:21;;;;;;;2.03;1.75;;;14.80;88.90;;;;;;4991590;28;20410;-74
2022/12/26 02:07:36;;;;;;;2.83;1.60;;;14.90;87.60;;;;;;4992087;28;20393;-75
2022/12/26 02:10:02;;;;;;;2.60;1.80;;;14.90;88.20;;;;;;4990929;28;20399;-75
2022/12/26 02:12:33;;;;;;;3.00;1.90;;;14.90;87.80;;;;;;4973628;28;20393;-75
2022/12/26 02:15:00;;;;;;;2.00;1.77;;;14.90;87.30;;;;;;4991225;28;20402;-75
2022/12/26 02:17:26;;;;;;;2.20;2.00;;;14.90;88.60;;;;;;4991383;28;20395;-75
2022/12/26 02:20:04;;;;;;;2.70;1.80;;;14.80;89.00;;;;;;4991487;28;20760;-74
2022/12/26 02:23:07;;;;;;;2.33;1.73;;;14.70;90.00;;;;;;4973618;28;20754;-74
2022/12/26 02:25:50;;;;;;;1.90;1.80;;;14.90;88.50;;;;;;4973366;28;20461;-75
2022/12/26 02:28:53;;;;;;;1.58;1.48;;;14.90;87.80;;;;;;4991103;28;20394;-74
2022/12/26 02:31:24;;;;;;;2.20;1.80;;;15.00;87.50;;;;;;4973567;28;20484;-74
2022/12/26 02:34:13;;;;;;;1.70;1.40;;;14.90;88.00;;;;;;4990438;28;20383;-74
2022/12/26 02:37:06;;;;;;;1.80;1.60;;;14.90;88.30;;;;;;4991066;28;20417;-74
2022/12/26 02:39:44;;;;;;;2.15;1.70;;;14.90;88.30;;;;;;4990543;28;20544;-74
2022/12/26 02:42:20;;;;;;;1.90;1.70;;;14.90;88.00;;;;;;4991065;28;20383;-74
2022/12/26 02:48:38;;;;;;;2.00;1.80;;;14.80;88.50;;;;;;4971007;28;20445;-75
2022/12/26 03:15:15;;;;;;;2.13;1.50;;;14.90;87.60;;;;;;4997245;28;20389;-74
2022/12/26 03:17:45;;;;;;;2.92;1.70;;;14.80;87.70;;;;;;4979325;28;20855;-75
2022/12/26 03:20:16;;;;;;;2.20;1.73;;;14.90;88.10;;;;;;4977839;28;20468;-75
2022/12/26 03:22:58;;;;;;;1.67;1.48;;;14.80;87.80;;;;;;4977191;28;20396;-74
2022/12/26 03:28:25;;;;;;;2.10;1.90;;;14.90;87.70;;;;;;4977686;28;20395;-75
2022/12/26 03:30:52;;;;;;;1.77;1.60;;;15.00;87.00;;;;;;4977687;28;20476;-75
2022/12/26 03:36:39;;;;;;;2.65;2.10;;;14.90;87.20;;;;;;4979388;28;20730;-75
2022/12/26 04:44:33;;;;;;;2.38;1.90;;;15.20;82.60;;;;;;4992835;28;20763;-75
2022/12/26 04:46:59;;;;;;;3.22;1.70;;;15.10;83.20;;;;;;4993222;28;20974;-74
2022/12/26 04:52:12;;;;;;;2.15;1.73;;;15.20;82.60;;;;;;4993350;28;20401;-75
2022/12/26 04:54:37;;;;;;;2.42;1.60;;;15.20;82.40;;;;;;4992548;28;20748;-75
2022/12/26 04:57:04;;;;;;;2.30;1.70;;;15.20;82.70;;;;;;4994004;28;20402;-75
2022/12/26 04:59:29;;;;;;;1.60;1.50;;;15.20;83.00;;;;;;4994159;28;20469;-75
2022/12/26 05:10:24;;;;;;;1.65;1.55;;;15.30;82.30;;;;;;4975450;28;20396;-75
2022/12/26 05:12:50;;;;;;;1.73;1.63;;;15.30;82.10;;;;;;4974972;28;20422;-75
2022/12/26 05:15:15;;;;;;;2.70;1.70;;;15.30;82.20;;;;;;4992963;28;20422;-75
2022/12/26 05:29:02;;;;;;;2.30;1.80;;;15.20;82.70;;;;;;4992115;28;20402;-74
2022/12/26 05:31:28;;;;;;;2.40;1.60;;;15.20;83.00;;;;;;4974166;28;20908;-74
2022/12/26 05:36:55;;;;;;;3.55;1.65;;;15.10;83.40;;;;;;4959006;28;20413;-75
2022/12/26 05:39:21;;;;;;;2.35;1.98;;;15.00;84.50;;;;;;4972716;28;20396;-74
2022/12/26 05:41:46;;;;;;;1.70;1.60;;;15.10;83.90;;;;;;4972956;28;20397;-74
2022/12/26 05:44:12;;;;;;;2.10;1.63;;;15.00;85.00;;;;;;4971977;28;20392;-74
2022/12/26 05:46:38;;;;;;;3.70;1.90;;;14.90;85.50;;;;;;4968564;28;20513;-75
2022/12/26 05:49:05;;;;;;;3.40;1.90;;;14.90;85.30;;;;;;4992058;28;20418;-74
2022/12/26 05:51:31;;;;;;;2.50;1.60;;;14.80;86.10;;;;;;4992100;28;20390;-74
2022/12/26 05:53:56;;;;;;;2.30;2.00;;;14.90;86.20;;;;;;4991174;28;20382;-74
2022/12/26 05:56:22;;;;;;;3.00;1.80;;;14.80;86.10;;;;;;4990437;28;20387;-74
2022/12/26 05:58:53;;;;;;;2.20;1.60;;;14.80;86.10;;;;;;4991318;28;20775;-74
2022/12/26 06:01:20;;;;;;;2.50;2.00;;;14.80;86.50;;;;;;5013145;22;20577;-74
2022/12/26 06:03:47;;;;;;;2.33;1.60;;;14.80;86.00;;;;;;4991020;28;20383;-75
2022/12/26 06:06:14;;;;;;;2.88;2.00;;;14.80;85.90;;;;;;4991722;28;20418;-74
2022/12/26 06:08:40;;;;;;;2.20;1.70;;;14.90;86.20;;;;;;4991492;28;20840;-74
2022/12/26 06:11:09;;;;;;;2.72;1.67;;;14.80;86.70;;;;;;4991494;28;20434;-74
2022/12/26 06:13:34;;;;;;;2.00;1.70;;;14.70;87.00;;;;;;4990965;28;20395;-74
2022/12/26 06:16:09;;;;;;;1.67;1.58;;;14.90;85.70;;;;;;4991782;28;20418;-74
2022/12/26 06:18:35;;;;;;;2.90;1.80;;;14.90;85.20;;;;;;4991486;28;20433;-74
2022/12/26 06:21:15;;;;;;;3.27;1.70;;;14.90;85.10;;;;;;4991417;28;20402;-73
2022/12/26 06:23:41;;;;;;;2.55;1.30;;;15.10;83.20;;;;;;4973314;28;20433;-73
2022/12/26 06:26:08;;;;;;;2.15;1.60;;;15.20;82.50;;;;;;4980705;28;20438;-74
2022/12/26 06:28:35;;;;;;;3.47;1.90;;;15.20;81.80;;;;;;4991456;28;20383;-75
2022/12/26 06:31:03;;;;;;;2.33;1.80;;;15.20;82.10;;;;;;4991348;28;20390;-75
2022/12/26 06:33:29;;;;;;;2.08;1.60;;;15.10;82.10;;;;;;4990477;28;20440;-74
2022/12/26 06:35:54;;;;;;;2.25;1.63;;;15.30;80.80;;;;;;4991044;28;20413;-74
2022/12/26 06:38:20;;;;;;;2.93;1.40;;;15.30;80.20;;;;;;4991163;28;20899;-74
2022/12/26 06:40:45;;;;;;;1.60;1.50;;;15.30;80.10;;;;;;4991331;28;20394;-75
2022/12/26 06:43:11;;;;;;;2.15;1.60;;;15.40;79.50;;;;;;4990622;28;20390;-74
2022/12/26 06:45:37;;;;;;;1.75;1.63;;;15.40;79.40;;;;;;4990996;28;20931;-74
2022/12/26 06:48:02;;;;;;;1.77;1.50;;;15.40;79.30;;;;;;4991272;28;20797;-74
2022/12/26 06:50:28;;;;;;;1.80;1.50;;;15.40;79.50;;;;;;4991064;28;20427;-74
2022/12/26 06:52:53;;;;;;;1.83;1.60;;;15.40;78.60;;;;;;4990459;28;20390;-74
2022/12/26 06:55:19;;;;;;;2.00;1.67;;;15.40;78.60;;;;;;4990648;28;20398;-74
2022/12/26 06:57:44;;;;;;;2.20;1.50;;;15.50;77.60;;;;;;4990984;28;20538;-75
2022/12/26 07:00:10;;;;;;;1.67;1.40;;;15.50;77.20;;;;;;4990785;28;20434;-74
2022/12/26 07:02:36;;;;;;;1.90;1.30;;;15.60;77.00;;;;;;4990395;28;20397;-74
2022/12/26 07:05:02;;;;;;;1.90;1.60;;;15.60;76.20;;;;;;4990693;28;20470;-74
2022/12/26 07:07:27;;;;;;;1.65;1.55;;;15.70;74.20;;;;;;4990768;28;20402;-74
2022/12/26 07:09:53;;;;;;;2.00;1.50;;;15.90;73.30;;;;;;4990818;28;20774;-74
2022/12/26 07:12:20;;;;;;;1.70;1.40;;;15.90;73.30;;;;;;4991051;28;20533;-75
2022/12/26 07:14:46;;;;;;;2.33;1.77;;;15.80;73.40;;;;;;4990023;28;20420;-74
2022/12/26 07:17:12;;;;;;;1.50;1.23;;;15.70;73.50;;;;;;4990503;28;20792;-74
2022/12/26 07:19:37;;;;;;;2.47;1.42;;;15.80;73.30;;;;;;4990889;28;20397;-75
2022/12/26 07:22:03;;;;;;;2.20;1.60;;;15.90;72.30;;;;;;4991056;28;20641;-75
2022/12/26 07:24:28;;;;;;;1.87;1.53;;;15.80;73.20;;;;;;4989812;28;20478;-74
2022/12/26 07:26:54;;;;;;;2.42;1.50;;;16.00;70.90;;;;;;4990600;28;20445;-73
2022/12/26 07:29:20;;;;;;;2.50;1.50;;;15.90;71.70;;;;;;4990761;28;20394;-74
2022/12/26 07:31:46;;;;;;;2.80;1.70;;;15.90;71.20;;;;;;4990862;28;20378;-74
2022/12/26 07:34:12;;;;;;;2.20;1.70;;;15.90;71.00;;;;;;4990081;28;20473;-75
2022/12/26 07:36:38;;;;;;;2.47;1.77;;;15.80;72.20;;;;;;4990553;28;20434;-75
2022/12/26 07:39:03;;;;;;;2.00;1.67;;;15.50;74.70;;;;;;4990877;28;20432;-74
2022/12/26 07:44:14;;;;;;;1.98;1.80;;;14.90;80.70;;;;;;4990163;28;20788;-74
2022/12/26 07:46:40;;;;;;;1.80;1.70;;;14.80;83.60;;;;;;4991914;28;20508;-74
2022/12/26 07:49:05;;;;;;;2.83;1.80;;;14.60;85.60;;;;;;4994363;28;20473;-74
2022/12/26 07:51:31;;;;;;;2.27;2.07;;;14.40;88.60;;;;;;4994244;28;20390;-75
2022/12/26 07:53:57;;;;;;;2.43;2.20;;;14.20;90.70;;;;;;4993716;28;20865;-74
2022/12/26 07:56:22;;;;;;;2.20;2.00;;;14.00;92.00;;;;;;4993841;28;20816;-74
2022/12/26 07:58:48;;;;;;;3.73;2.10;;;13.90;93.20;;;;;;4994312;28;20390;-74
2022/12/26 08:01:14;;;;;;;3.78;2.30;;;13.60;96.10;;;;;;4993904;28;20407;-75
2022/12/26 08:03:40;;;;;;;3.13;2.58;;;13.40;99.40;;;;;;4992196;28;20409;-74
2022/12/26 08:06:08;;;;;;;2.93;2.60;;;13.40;99.90;;;;;;4993868;28;20410;-74
2022/12/26 08:08:34;;;;;;;2.67;2.47;;;13.30;99.90;;;;;;4993983;28;20433;-74
2022/12/26 08:11:01;;;;;;;2.50;2.30;;;13.20;99.90;;;;;;4993300;28;20430;-73
2022/12/26 08:13:28;;;;;;;2.70;2.40;;;13.30;99.90;;;;;;4993080;28;20402;-73
2022/12/26 08:15:54;;;;;;;2.20;2.00;;;13.20;99.90;;;;;;4993990;28;20422;-73
2022/12/26 08:18:20;;;;;;;2.50;2.30;;;13.20;99.90;;;;;;4993917;28;20397;-72
2022/12/26 08:20:45;;;;;;;2.72;2.53;;;13.30;99.90;;;;;;4993551;28;20402;-73
2022/12/26 08:23:11;;;;;;;3.85;2.50;;;13.30;99.90;;;;;;4992818;28;20394;-74
2022/12/26 08:25:36;;;;;;;4.10;2.90;;;13.20;99.90;;;;;;4993440;28;20403;-73
2022/12/26 08:28:02;;;;;;;2.83;2.50;;;13.20;99.90;;;;;;4993732;28;20394;-72
2022/12/26 08:30:27;;;;;;;3.65;3.00;;;13.10;99.90;;;;;;4993563;28;20393;-73
2022/12/26 08:32:53;;;;;;;3.30;2.60;;;13.10;99.90;;;;;;4992920;28;20409;-73
2022/12/26 08:35:18;;;;;;;3.60;2.80;;;13.00;99.90;;;;;;4993073;28;20402;-72
2022/12/26 08:37:46;;;;;;;3.87;2.97;;;12.80;99.90;;;;;;4993643;28;20397;-73
2022/12/26 08:40:11;;;;;;;3.90;3.10;;;12.70;99.90;;;;;;4993444;28;20409;-71
2022/12/26 08:42:37;;;;;;;4.00;3.30;;;12.60;99.90;;;;;;4992701;28;20390;-72
2022/12/26 08:45:02;;;;;;;6.50;3.30;;;12.50;99.90;;;;;;4992926;28;20465;-71
2022/12/26 08:47:28;;;;;;;3.63;3.00;;;12.50;99.90;;;;;;4993047;28;20402;-72
2022/12/26 08:49:53;;;;;;;3.70;3.40;;;12.50;99.90;;;;;;4993173;28;20405;-72
2022/12/26 08:52:19;;;;;;;5.30;3.53;;;12.50;99.90;;;;;;4993136;28;20390;-71
2022/12/26 08:54:44;;;;;;;3.58;3.28;;;12.40;99.90;;;;;;4992547;28;20398;-71
2022/12/26 08:57:10;;;;;;;4.30;3.73;;;12.30;99.90;;;;;;4992243;28;20429;-71
2022/12/26 08:59:35;;;;;;;4.30;3.90;;;12.30;99.90;;;;;;4992711;28;20398;-70
2022/12/26 09:02:01;;;;;;;4.18;3.58;;;12.30;99.90;;;;;;4993146;28;20399;-70
2022/12/26 09:04:26;;;;;;;4.00;3.70;;;12.20;99.90;;;;;;4992295;28;20437;-70
2022/12/26 09:06:52;;;;;;;5.50;3.90;;;12.10;99.90;;;;;;4992788;28;20469;-71
2022/12/26 09:09:17;;;;;;;4.07;3.77;;;12.20;99.90;;;;;;4992533;28;20398;-71
2022/12/26 09:11:43;;;;;;;5.10;4.05;;;12.10;99.90;;;;;;4992912;28;20378;-72
2022/12/26 09:14:09;;;;;;;5.28;4.10;;;12.20;99.90;;;;;;4992112;28;20393;-71
2022/12/26 09:16:45;;;;;;;4.40;3.80;;;12.20;99.90;;;;;;4992576;28;20405;-71
2022/12/26 09:19:12;;;;;;;4.80;3.70;;;12.20;99.90;;;;;;4993145;28;20452;-71
2022/12/26 09:21:38;;;;;;;5.20;3.83;;;12.10;99.90;;;;;;4992585;28;20383;-71
2022/12/26 09:24:06;;;;;;;4.45;3.90;;;12.10;99.90;;;;;;4991999;28;20756;-71
2022/12/26 09:26:32;;;;;;;3.80;3.50;;;12.20;99.90;;;;;;4992315;28;20541;-70
2022/12/26 09:28:58;;;;;;;4.97;3.67;;;12.30;99.90;;;;;;4992635;28;20422;-70
2022/12/26 09:31:27;;;;;;;3.95;3.55;;;12.20;99.90;;;;;;4992123;28;20902;-71
2022/12/26 09:33:52;;;;;;;6.70;3.90;;;12.30;99.90;;;;;;4991863;28;20394;-71
2022/12/26 09:36:29;;;;;;;5.10;3.70;;;12.20;99.90;;;;;;4991874;28;20406;-70
2022/12/26 09:38:56;;;;;;;5.18;3.50;;;12.20;99.90;;;;;;4992020;28;20413;-70
2022/12/26 09:41:35;;;;;;;5.67;4.23;;;12.20;99.90;;;;;;4974706;28;20436;-70
2022/12/26 09:44:20;;;;;;;4.50;3.85;;;12.10;99.90;;;;;;4991461;28;20441;-71
2022/12/26 09:47:25;;;;;;;4.00;3.70;;;12.00;99.90;;;;;;4991571;28;20413;-70
2022/12/26 09:49:59;;;;;;;4.90;3.80;;;11.90;99.90;;;;;;4991817;28;20398;-70
2022/12/26 09:52:54;;;;;;;4.43;3.53;;;11.90;99.90;;;;;;4991728;28;20836;-72
2022/12/26 09:55:30;;;;;;;5.68;3.92;;;11.90;99.90;;;;;;4992079;28;20487;-72
2022/12/26 09:58:20;;;;;;;4.80;3.60;;;11.80;99.90;;;;;;4991930;28;20406;-70
2022/12/26 10:00:54;;;;;;;5.93;4.30;;;11.80;99.90;;;;;;4991392;28;20421;-71
2022/12/26 10:03:21;;;;;;;4.88;3.60;;;11.80;99.90;;;;;;4991087;28;20758;-72
2022/12/26 10:06:02;;;;;;;5.50;4.20;;;11.80;99.90;;;;;;4991866;28;20410;-71
2022/12/26 10:08:48;;;;;;;4.68;4.28;;;11.80;99.90;;;;;;4991426;28;20453;-71
2022/12/26 10:11:19;;;;;;;5.60;4.03;;;11.70;99.90;;;;;;4991595;28;20391;-71
2022/12/26 10:13:54;;;;;;;4.65;4.25;;;11.70;99.90;;;;;;4990602;28;20947;-70
2022/12/26 10:16:33;;;;;;;4.70;4.00;;;11.60;99.90;;;;;;4991524;28;20456;-72
2022/12/26 10:19:16;;;;;;;4.70;4.20;;;11.50;99.90;;;;;;4991548;28;20398;-71
2022/12/26 10:22:00;;;;;;;4.60;4.20;;;11.50;99.90;;;;;;4991573;28;20378;-71
2022/12/26 10:24:29;;;;;;;4.13;3.73;;;11.50;99.90;;;;;;4990779;28;20868;-71
2022/12/26 10:27:01;;;;;;;4.20;3.60;;;11.50;99.90;;;;;;4991120;28;20410;-71
2022/12/26 10:29:39;;;;;;;4.25;3.83;;;11.50;99.90;;;;;;4991663;28;20395;-71
2022/12/26 10:32:15;;;;;;;3.65;3.35;;;11.40;99.90;;;;;;4991362;28;20418;-71
2022/12/26 10:34:48;;;;;;;5.10;3.60;;;11.50;99.90;;;;;;4971767;28;20479;-71
2022/12/26 10:37:21;;;;;;;4.03;3.28;;;11.50;99.90;;;;;;4988136;28;20399;-70
2022/12/26 10:39:50;;;;;;;4.20;3.20;;;11.50;99.90;;;;;;4991411;28;20397;-70
2022/12/26 10:42:32;;;;;;;3.97;3.20;;;11.50;99.90;;;;;;4991216;28;20394;-70
2022/12/26 10:44:58;;;;;;;5.70;3.40;;;11.40;99.90;;;;;;4991121;28;20753;-71
2022/12/26 10:47:33;;;;;;;3.70;3.40;;;11.40;99.90;;;;;;4990658;28;20401;-70
2022/12/26 10:50:01;;;;;;;2.92;2.67;;;11.40;99.90;;;;;;4991527;28;20378;-70
2022/12/26 10:52:37;;;;;;;3.67;2.50;;;11.50;99.90;;;;;;4989441;28;21056;-70
2022/12/26 10:55:03;;;;;;;2.50;2.30;;;11.40;99.90;;;;;;4991290;28;20390;-71
2022/12/26 10:57:33;;;;;;;2.70;2.50;;;11.40;99.90;;;;;;4987732;28;20398;-71
2022/12/26 11:00:01;;;;;;;2.50;1.83;;;11.30;99.90;;;;;;4990702;28;20402;-71
2022/12/26 11:02:30;;;;;;;2.00;1.80;;;11.40;99.90;;;;;;4990506;28;20398;-70
2022/12/26 11:05:21;;;;;;;2.40;2.10;;;11.50;99.90;;;;;;4990941;28;20458;-72
2022/12/26 11:07:54;;;;;;;1.77;1.40;;;11.50;99.90;;;;;;4989776;28;20402;-71
2022/12/26 11:10:23;;;;;;;1.98;1.48;;;11.50;99.90;;;;;;4990830;28;20406;-72
2022/12/26 11:12:51;;;;;;;2.23;1.97;;;11.50;99.90;;;;;;4990108;28;20379;-71
2022/12/26 11:15:40;;;;;;;1.52;1.42;;;11.50;99.90;;;;;;4990959;28;20395;-72
2022/12/26 11:18:14;;;;;;;1.40;0.80;;;11.50;99.90;;;;;;4990879;28;20378;-71
2022/12/26 11:20:40;;;;;;;1.35;1.25;;;11.50;99.90;;;;;;4992286;28;20398;-72
2022/12/26 11:23:27;;;;;;;1.47;1.10;;;11.50;99.90;;;;;;4994104;28;20393;-71
2022/12/26 11:25:55;;;;;;;1.92;1.00;;;11.40;99.90;;;;;;4994485;28;20907;-72
2022/12/26 11:28:33;;;;;;;2.47;1.77;;;11.40;99.90;;;;;;4995013;28;20378;-71
2022/12/26 11:31:02;;;;;;;1.10;1.00;;;11.30;99.90;;;;;;4994666;28;20469;-72
2022/12/26 11:33:45;;;;;;;1.20;1.10;;;11.30;99.90;;;;;;4994011;28;20480;-72
2022/12/26 11:36:19;;;;;;;1.95;1.17;;;11.20;99.90;;;;;;4994818;28;20406;-72
2022/12/26 11:38:49;;;;;;;1.40;0.80;;;11.10;99.90;;;;;;4994719;28;21096;-72
2022/12/26 11:41:32;;;;;;;1.30;0.80;;;11.20;99.90;;;;;;4994539;28;20456;-72
2022/12/26 11:44:10;;;;;;;2.10;1.83;;;11.30;99.90;;;;;;4993839;28;20394;-72
2022/12/26 11:46:41;;;;;;;0.80;0.60;;;11.30;99.90;;;;;;4994156;28;20418;-71
2022/12/26 11:49:34;;;;;;;0.60;0.50;;;11.40;99.90;;;;;;4994354;28;20439;-72
2022/12/26 11:52:02;;;;;;;0.90;0.70;;;11.40;99.90;;;;;;4993537;28;20446;-71
2022/12/26 11:54:45;;;;;;;1.20;0.50;;;11.40;99.90;;;;;;4993698;28;20390;-72
2022/12/26 11:57:21;;;;;;;0.60;0.50;;;11.30;99.90;;;;;;4994215;28;20485;-72
2022/12/26 11:59:49;;;;;;;0.50;0.43;;;11.30;99.90;;;;;;4992889;28;20421;-72
2022/12/26 12:02:14;;;;;;;1.10;0.50;;;11.20;99.90;;;;;;5032109;23;20924;-74
2022/12/26 12:04:40;;;;;;;0.60;0.50;;;11.10;99.90;;;;;;5013139;28;20423;-74
2022/12/26 12:07:21;;;;;;;0.60;0.57;;;11.10;99.90;;;;;;5013673;28;20435;-74
2022/12/26 12:10:13;;;;;;;0.40;0.40;;;11.10;99.90;;;;;;5013641;28;20385;-74
2022/12/26 12:13:00;;;;;;;0.80;0.70;;;11.00;99.90;;;;;;4992991;28;20464;-74
2022/12/26 12:15:41;;;;;;;0.70;0.70;;;11.00;99.90;;;;;;4993899;28;20904;-74
2022/12/26 12:18:31;;;;;;;0.80;0.60;;;11.00;99.90;;;;;;4993922;28;20877;-73
2022/12/26 12:21:26;;;;;;;0.50;0.50;;;11.00;99.90;;;;;;4993283;28;20502;-73
2022/12/26 12:23:58;;;;;;;0.80;0.60;;;11.00;99.90;;;;;;4992875;28;20438;-73
2022/12/26 12:26:38;;;;;;;0.80;0.60;;;10.90;99.90;;;;;;4993542;28;20450;-72
2022/12/26 12:29:21;;;;;;;0.60;0.60;;;11.00;99.90;;;;;;4993589;28;20400;-72
2022/12/26 12:32:13;;;;;;;0.73;0.65;;;11.00;99.90;;;;;;4992729;28;20872;-72
2022/12/26 12:34:47;;;;;;;1.00;0.60;;;11.00;99.90;;;;;;4992453;28;20409;-74
2022/12/26 12:37:48;;;;;;;0.70;0.70;;;10.90;99.90;;;;;;4993621;28;20390;-74
2022/12/26 12:40:39;;;;;;;1.00;0.90;;;10.90;99.90;;;;;;4988991;28;20830;-74
2022/12/26 12:43:40;;;;;;;2.67;2.45;;;10.90;99.90;;;;;;4973197;28;20898;-74
2022/12/26 12:46:21;;;;;;;2.10;0.70;;;10.90;99.90;;;;;;4946577;28;20443;-75
2022/12/26 12:49:18;;;;;;;0.80;0.70;;;10.90;99.90;;;;;;4980062;28;20877;-74
2022/12/26 12:52:17;;;;;;;0.70;0.70;;;10.80;99.90;;;;;;4993337;28;20880;-73
2022/12/26 12:55:00;;;;;;;0.88;0.60;;;10.90;99.90;;;;;;4992541;28;20378;-74
2022/12/26 12:57:44;;;;;;;0.70;0.60;;;11.00;99.90;;;;;;4993372;28;20374;-74
2022/12/26 13:00:20;;;;;;;0.73;0.63;;;10.90;99.90;;;;;;4992752;28;20931;-74
2022/12/26 13:03:01;;;;;;;1.77;0.90;;;10.90;99.90;;;;;;4992032;28;20417;-74
2022/12/26 13:05:50;;;;;;;0.68;0.60;;;10.80;99.90;;;;;;4993094;28;20433;-73
2022/12/26 13:09:04;;;;;;;1.98;0.90;;;10.70;99.90;;;;;;4991627;28;20406;-73
2022/12/26 13:11:38;;;;;;;0.80;0.70;;;10.80;99.90;;;;;;4951991;28;20522;-74
2022/12/26 13:14:27;;;;;;;0.60;0.60;;;10.80;99.90;;;;;;4985600;28;20933;-74
2022/12/26 13:17:17;;;;;;;0.70;0.70;;;10.90;99.90;;;;;;4992679;28;20509;-73
2022/12/26 13:19:52;;;;;;;0.93;0.65;;;10.80;99.90;;;;;;4992807;28;20391;-74
2022/12/26 13:25:27;;;;;;;0.88;0.82;;;10.90;99.90;;;;;;4992958;28;20844;-74
2022/12/26 13:27:55;;;;;;;0.90;0.70;;;11.00;99.90;;;;;;4992338;28;20398;-74
2022/12/26 13:30:21;;;;;;;0.75;0.70;;;10.90;99.90;;;;;;4992802;28;20390;-74
2022/12/26 13:32:47;;;;;;;0.70;0.70;;;10.90;99.90;;;;;;4991882;28;20387;-74
2022/12/26 13:36:07;;;;;;;0.90;0.70;;;11.00;99.90;;;;;;4992221;28;20394;-74
2022/12/26 13:39:00;;;;;;;1.10;0.80;;;11.10;99.90;;;;;;4951233;29;20948;-74
2022/12/26 13:44:26;;;;;;;0.70;0.60;;;11.20;99.90;;;;;;4991533;28;20537;-74
2022/12/26 13:46:54;;;;;;;1.00;0.60;;;11.30;99.90;;;;;;4992157;28;20501;-73
2022/12/26 13:49:28;;;;;;;0.70;0.60;;;11.20;99.90;;;;;;4992222;28;20810;-73
2022/12/26 13:52:18;;;;;;;0.75;0.50;;;11.30;99.90;;;;;;4991837;28;20808;-72
2022/12/26 13:54:47;;;;;;;0.60;0.60;;;11.40;99.90;;;;;;4991095;28;20970;-74
2022/12/26 13:57:35;;;;;;;1.27;0.90;;;11.40;99.90;;;;;;4992140;28;20405;-74
2022/12/26 14:00:08;;;;;;;0.80;0.70;;;11.40;99.90;;;;;;4991976;28;20447;-74
2022/12/26 14:02:53;;;;;;;1.60;0.90;;;11.40;99.90;;;;;;4989841;28;20406;-73
2022/12/26 14:05:38;;;;;;;0.60;0.60;;;11.40;99.90;;;;;;4991342;28;20390;-74
2022/12/26 14:08:09;;;;;;;0.85;0.75;;;11.50;99.90;;;;;;4991809;28;20401;-74
2022/12/26 14:10:53;;;;;;;1.10;0.90;;;11.40;99.90;;;;;;4991791;28;20390;-74
2022/12/26 14:13:39;;;;;;;1.50;0.88;;;11.40;99.90;;;;;;4989785;28;20390;-73
2022/12/26 14:16:26;;;;;;;1.20;0.70;;;11.50;99.90;;;;;;4991601;28;20410;-73
2022/12/26 14:18:52;;;;;;;0.80;0.80;;;11.40;99.90;;;;;;4991407;28;20840;-74
2022/12/26 14:21:29;;;;;;;0.70;0.70;;;11.50;99.90;;;;;;4991713;28;20386;-74
2022/12/26 14:24:21;;;;;;;1.10;0.80;;;11.40;99.90;;;;;;4990693;28;20418;-73
2022/12/26 14:27:31;;;;;;;0.93;0.80;;;11.50;99.90;;;;;;4991565;28;20406;-73
2022/12/26 14:30:15;;;;;;;1.10;0.80;;;11.50;99.90;;;;;;4991337;28;20393;-73
2022/12/26 14:33:00;;;;;;;1.40;0.70;;;11.50;99.90;;;;;;4990528;28;20489;-74
2022/12/26 14:35:39;;;;;;;1.20;0.60;;;11.50;99.90;;;;;;4990210;28;20391;-74
2022/12/26 14:38:20;;;;;;;0.53;0.53;;;11.50;99.90;;;;;;4991346;28;20459;-74
2022/12/26 14:41:00;;;;;;;1.63;1.38;;;11.60;99.90;;;;;;4990918;28;20410;-74
2022/12/26 14:43:38;;;;;;;0.80;0.70;;;11.60;99.90;;;;;;4990678;28;20387;-75
2022/12/26 14:46:26;;;;;;;1.40;0.75;;;11.70;99.90;;;;;;4991345;28;20413;-76
2022/12/26 14:48:56;;;;;;;1.30;0.90;;;11.60;99.90;;;;;;4991278;28;20421;-74
2022/12/26 14:51:31;;;;;;;1.40;0.60;;;11.60;99.90;;;;;;4971899;28;20847;-75
2022/12/26 14:54:21;;;;;;;1.27;0.80;;;11.60;99.90;;;;;;4969813;28;20396;-75
2022/12/26 14:56:48;;;;;;;0.80;0.80;;;11.50;99.90;;;;;;4971467;28;20395;-75
2022/12/26 14:59:33;;;;;;;1.50;1.10;;;11.50;99.90;;;;;;4973409;28;20384;-76
2022/12/26 15:02:22;;;;;;;2.97;2.43;;;11.50;99.90;;;;;;4989729;28;20474;-75
2022/12/26 15:05:15;;;;;;;1.00;0.90;;;11.50;99.90;;;;;;4986029;28;20485;-75
2022/12/26 15:08:29;;;;;;;1.05;0.95;;;11.60;99.90;;;;;;4991294;28;20452;-75
2022/12/26 15:11:20;;;;;;;1.30;1.00;;;11.50;99.90;;;;;;4975791;28;20429;-75
2022/12/26 15:14:24;;;;;;;1.60;1.00;;;11.70;99.90;;;;;;4977155;28;20402;-76
2022/12/26 15:17:04;;;;;;;0.75;0.75;;;11.60;99.90;;;;;;4989685;28;20397;-74
2022/12/26 15:20:01;;;;;;;0.90;0.80;;;11.70;99.90;;;;;;4989429;28;20430;-75
2022/12/26 15:22:59;;;;;;;6.68;1.40;;;11.70;99.90;;;;;;4990168;28;20395;-74
2022/12/26 15:25:52;;;;;;;2.00;1.10;;;11.70;99.90;;;;;;4991376;28;20911;-74
2022/12/26 15:28:42;;;;;;;1.30;1.10;;;11.80;99.90;;;;;;4990932;28;20386;-74
2022/12/26 15:31:31;;;;;;;1.30;1.10;;;11.70;99.90;;;;;;4971310;28;20419;-75
2022/12/26 15:34:05;;;;;;;1.58;1.27;;;11.80;99.90;;;;;;4986413;28;20398;-75
2022/12/26 15:36:50;;;;;;;2.10;1.40;;;11.70;99.90;;;;;;4989326;28;20497;-75